createdAt,value
2023-04-19T00:00:44.197Z,99848.34
2023-04-19T00:03:47.506Z,99852.62
2023-04-19T00:06:52.101Z,99847.28
2023-04-19T00:09:55.500Z,99846.28
2023-04-19T00:12:58.613Z,99845.47
2023-04-19T00:16:03.112Z,99833.47
2023-04-19T00:19:06.060Z,99836.94
2023-04-19T00:22:09.232Z,99836.53
2023-04-19T00:25:12.877Z,99833.47
2023-04-19T00:28:16.261Z,99833.91
2023-04-19T00:31:19.200Z,99834.28
2023-04-19T00:34:22.493Z,99828.78
2023-04-19T00:37:25.487Z,99825.63
2023-04-19T00:40:29.211Z,99819.41
2023-04-19T00:43:32.099Z,99823.56
2023-04-19T00:46:38.022Z,99826.97
2023-04-19T00:49:41.083Z,99822.56
2023-04-19T00:52:44.305Z,99825.59
2023-04-19T00:55:48.380Z,99822.84
2023-04-19T00:58:51.908Z,99812.47
2023-04-19T01:01:54.907Z,99811.16
2023-04-19T01:04:59.422Z,99816.59
2023-04-19T01:08:02.718Z,99811.94
2023-04-19T01:11:08.283Z,99822.81
2023-04-19T01:14:12.956Z,99808.88
2023-04-19T01:17:18.955Z,99805.50
2023-04-19T01:20:23.172Z,99801.81
2023-04-19T01:23:26.580Z,99795.53
2023-04-19T01:26:29.440Z,99792.78
2023-04-19T01:29:32.632Z,99789.38
2023-04-19T01:32:35.562Z,99778.34
2023-04-19T01:35:38.755Z,99785.34
2023-04-19T01:38:43.670Z,99780.78
2023-04-19T01:41:46.865Z,99786.78
2023-04-19T01:44:49.866Z,99781.38
2023-04-19T01:47:53.367Z,99778.59
2023-04-19T01:50:56.344Z,99777.78
2023-04-19T01:53:59.854Z,99773.56
2023-04-19T01:57:03.914Z,99774.44
2023-04-19T02:00:09.374Z,99776.50
2023-04-19T02:03:17.148Z,99765.09
2023-04-19T02:06:21.161Z,99759.31
2023-04-19T02:09:26.803Z,99759.91
2023-04-19T02:12:32.129Z,99763.19
2023-04-19T02:15:37.731Z,99761.59
2023-04-19T02:18:41.757Z,99758.94
2023-04-19T02:21:44.700Z,99753.12
2023-04-19T02:24:50.982Z,99760.16
2023-04-19T02:27:54.030Z,99754.34
2023-04-19T02:30:58.063Z,99754.69
2023-04-19T02:34:00.960Z,99751.78
2023-04-19T02:37:04.417Z,99748.94
2023-04-19T02:40:08.013Z,99741.53
2023-04-19T02:43:11.384Z,99736.91
2023-04-19T02:46:14.633Z,99734.50
2023-04-19T02:49:18.393Z,99732.56
2023-04-19T02:52:21.402Z,99737.94
2023-04-19T02:55:24.797Z,99739.91
2023-04-19T02:58:28.589Z,99732.88
2023-04-19T03:01:33.052Z,99728.16
2023-04-19T03:04:37.669Z,99727.66
2023-04-19T03:07:44.446Z,99719.87
2023-04-19T03:10:48.564Z,99717.75
2023-04-19T03:13:51.854Z,99721.97
2023-04-19T03:16:55.129Z,99703.72
2023-04-19T03:19:59.169Z,99701.28
2023-04-19T03:23:02.555Z,99700.81
2023-04-19T03:26:07.222Z,99694.25
2023-04-19T03:29:11.053Z,99689.81
2023-04-19T03:32:14.538Z,99685.19
2023-04-19T03:35:18.566Z,99680.56
2023-04-19T03:38:22.293Z,99691.78
2023-04-19T03:41:27.037Z,99685.12
2023-04-19T03:44:34.340Z,99682.00
2023-04-19T03:47:38.129Z,99688.91
2023-04-19T03:50:41.756Z,99683.41
2023-04-19T03:53:47.272Z,99691.25
2023-04-19T03:56:53.445Z,99689.41
2023-04-19T03:59:56.893Z,99686.38
2023-04-19T04:03:00.419Z,99688.00
2023-04-19T04:06:04.260Z,99683.81
2023-04-19T04:13:16.193Z,99678.28
2023-04-19T04:16:20.586Z,99678.38
2023-04-19T04:19:24.359Z,99679.72
2023-04-19T04:22:28.998Z,99680.56
2023-04-19T04:25:34.270Z,99681.91
2023-04-19T04:28:40.576Z,99682.06
2023-04-19T04:31:45.328Z,99691.06
2023-04-19T04:34:49.208Z,99691.06
2023-04-19T04:37:54.085Z,99689.50
2023-04-19T04:40:59.476Z,99694.19
2023-04-19T04:44:12.416Z,99696.06
2023-04-19T04:47:17.835Z,99697.19
2023-04-19T04:50:21.304Z,99691.44
2023-04-19T04:53:28.583Z,99689.06
2023-04-19T04:56:32.010Z,99681.84
2023-04-19T04:59:36.762Z,99689.25
2023-04-19T05:02:39.876Z,99677.06
2023-04-19T05:05:45.112Z,99678.78
2023-04-19T05:08:48.771Z,99677.31
2023-04-19T05:11:52.179Z,99672.81
2023-04-19T05:14:55.701Z,99676.72
2023-04-19T05:17:59.683Z,99667.06
2023-04-19T05:21:03.027Z,99661.84
2023-04-19T05:24:06.925Z,99656.78
2023-04-19T05:27:11.404Z,99655.72
2023-04-19T05:30:15.357Z,99647.25
2023-04-19T05:33:18.738Z,99650.81
2023-04-19T05:36:22.145Z,99654.06
2023-04-19T05:39:27.826Z,99662.25
2023-04-19T05:42:31.165Z,99636.78
2023-04-19T05:45:34.163Z,99642.03
2023-04-19T05:48:37.370Z,99656.16
2023-04-19T05:51:41.490Z,99655.94
2023-04-19T05:54:46.338Z,99643.47
2023-04-19T05:57:49.956Z,99648.00
2023-04-19T06:00:53.886Z,99658.03
2023-04-19T06:03:59.256Z,99659.16
2023-04-19T06:07:03.203Z,99660.66
2023-04-19T06:10:08.432Z,99663.44
2023-04-19T06:13:11.397Z,99657.47
2023-04-19T06:16:14.761Z,99660.09
2023-04-19T06:19:17.747Z,99657.50
2023-04-19T06:22:21.982Z,99659.75
2023-04-19T06:25:24.913Z,99659.09
2023-04-19T06:28:30.930Z,99654.59
2023-04-19T06:31:34.106Z,99655.38
2023-04-19T06:34:37.305Z,99656.88
2023-04-19T06:37:40.268Z,99658.91
2023-04-19T06:40:43.605Z,99654.59
2023-04-19T06:43:46.697Z,99655.91
2023-04-19T06:46:51.215Z,99651.25
2023-04-19T06:49:54.237Z,99647.41
2023-04-19T06:52:58.781Z,99648.63
2023-04-19T06:56:02.929Z,99647.06
2023-04-19T06:59:06.370Z,99654.78
2023-04-19T07:02:09.306Z,99651.72
2023-04-19T07:05:13.723Z,99644.28
2023-04-19T07:08:16.762Z,99637.03
2023-04-19T07:11:21.136Z,99637.88
2023-04-19T07:14:25.385Z,99638.56
2023-04-19T07:17:28.545Z,99644.22
2023-04-19T07:20:31.828Z,99645.69
2023-04-19T07:23:35.091Z,99638.03
2023-04-19T07:26:38.090Z,99642.37
2023-04-19T07:29:41.531Z,99644.34
2023-04-19T07:32:46.322Z,99637.78
2023-04-19T07:35:51.627Z,99638.81
2023-04-19T07:38:56.104Z,99640.50
2023-04-19T07:41:59.659Z,99642.03
2023-04-19T07:45:03.324Z,99637.84
2023-04-19T07:48:06.595Z,99638.25
2023-04-19T07:51:13.953Z,99627.81
2023-04-19T07:54:18.340Z,99625.06
2023-04-19T07:57:21.520Z,99629.38
2023-04-19T08:00:24.832Z,99620.41
2023-04-19T08:03:28.633Z,99613.78
2023-04-19T08:06:32.680Z,99611.09
2023-04-19T08:09:37.979Z,99608.72
2023-04-19T08:12:50.447Z,99609.53
2023-04-19T08:16:18.058Z,99611.44
2023-04-19T08:19:23.599Z,99602.53
2023-04-19T08:22:27.209Z,99610.31
2023-04-19T08:25:30.134Z,99607.59
2023-04-19T08:28:33.349Z,99618.88
2023-04-19T08:31:36.597Z,99612.22
2023-04-19T08:34:40.729Z,99604.09
2023-04-19T08:37:43.696Z,99609.50
2023-04-19T08:40:52.232Z,99603.16
2023-04-19T08:43:55.330Z,99598.47
2023-04-19T08:47:00.196Z,99601.53
2023-04-19T08:50:17.160Z,99601.31
2023-04-19T08:53:29.446Z,99590.19
2023-04-19T08:56:35.801Z,99593.34
2023-04-19T08:59:39.632Z,99587.41
2023-04-19T09:02:48.368Z,99589.72
2023-04-19T09:05:52.273Z,99584.53
2023-04-19T09:09:28.756Z,99581.94
2023-04-19T09:12:39.097Z,99584.81
2023-04-19T09:15:44.730Z,99579.50
2023-04-19T09:19:08.193Z,99581.78
2023-04-19T09:22:19.053Z,99575.13
2023-04-19T09:25:49.332Z,99577.34
2023-04-19T09:29:06.154Z,99571.03
2023-04-19T09:32:09.438Z,99564.78
2023-04-19T09:35:12.471Z,99562.47
2023-04-19T09:38:16.486Z,99561.25
2023-04-19T09:41:19.330Z,99559.94
2023-04-19T09:47:30.333Z,99548.34
2023-04-19T09:50:42.695Z,99557.00
2023-04-19T09:53:53.850Z,99557.72
2023-04-19T09:56:58.336Z,99559.06
2023-04-19T10:00:04.158Z,99555.44
2023-04-19T10:03:16.899Z,99551.91
2023-04-19T10:09:27.381Z,99548.88
2023-04-19T10:12:58.393Z,99556.84
2023-04-19T10:15:59.332Z,99545.50
2023-04-19T10:19:18.036Z,99544.28
2023-04-19T10:22:21.194Z,99541.16
2023-04-19T10:25:30.034Z,99541.09
2023-04-19T10:28:36.058Z,99531.19
2023-04-19T10:31:41.138Z,99529.59
2023-04-19T10:34:43.999Z,99534.91
2023-04-19T10:38:09.215Z,99529.13
2023-04-19T10:41:15.342Z,99528.41
2023-04-19T10:44:19.834Z,99522.47
2023-04-19T10:47:44.858Z,99534.91
2023-04-19T10:51:11.342Z,99520.94
2023-04-19T10:54:38.652Z,99519.16
2023-04-19T10:58:07.755Z,99516.78
2023-04-19T11:01:34.753Z,99513.09
2023-04-19T11:04:51.244Z,99517.00
2023-04-19T11:07:54.256Z,99511.78
2023-04-19T11:10:57.910Z,99507.28
2023-04-19T11:14:02.684Z,99501.44
2023-04-19T11:17:17.369Z,99514.31
2023-04-19T11:20:23.719Z,99508.16
2023-04-19T11:23:27.729Z,99504.53
2023-04-19T11:26:31.500Z,99507.44
2023-04-19T11:29:34.916Z,99505.63
2023-04-19T11:32:38.527Z,99508.44
2023-04-19T11:35:43.975Z,99512.25
2023-04-19T11:38:48.553Z,99518.25
2023-04-19T11:41:51.760Z,99504.59
2023-04-19T11:44:56.789Z,99512.53
2023-04-19T11:48:00.441Z,99503.25
2023-04-19T11:51:04.965Z,99505.16
2023-04-19T11:54:18.384Z,99505.91
2023-04-19T11:57:31.138Z,99508.97
2023-04-19T12:00:34.355Z,99509.34
2023-04-19T12:03:51.270Z,99514.28
2023-04-19T12:06:59.810Z,99506.72
2023-04-19T12:10:11.375Z,99502.53
2023-04-19T12:13:20.826Z,99508.66
2023-04-19T12:16:32.278Z,99504.28
2023-04-19T12:19:46.901Z,99504.87
2023-04-19T12:22:51.619Z,99501.97
2023-04-19T12:25:54.629Z,99487.66
2023-04-19T12:29:00.935Z,99491.97
2023-04-19T12:32:04.585Z,99487.19
2023-04-19T12:35:08.288Z,99482.09
2023-04-19T12:38:11.426Z,99485.72
2023-04-19T12:41:14.682Z,99487.56
2023-04-19T12:44:17.599Z,99482.66
2023-04-19T12:47:20.764Z,99485.38
2023-04-19T12:50:23.811Z,99493.41
2023-04-19T12:53:28.402Z,99490.19
2023-04-19T12:56:31.270Z,99493.03
2023-04-19T12:59:36.073Z,99481.69
2023-04-19T13:02:39.162Z,99488.47
2023-04-19T13:05:42.365Z,99480.81
2023-04-19T13:08:47.524Z,99481.41
2023-04-19T13:11:52.031Z,99479.53
2023-04-19T13:14:55.005Z,99482.81
2023-04-19T13:17:58.307Z,99482.59
2023-04-19T13:21:01.194Z,99474.84
2023-04-19T13:24:04.561Z,99476.94
2023-04-19T13:27:08.889Z,99471.28
2023-04-19T13:30:13.099Z,99483.19
2023-04-19T13:33:16.297Z,99478.69
2023-04-19T13:36:19.673Z,99474.47
2023-04-19T13:39:22.611Z,99483.16
2023-04-19T13:42:27.432Z,99481.56
2023-04-19T13:45:30.329Z,99478.19
2023-04-19T13:48:35.037Z,99475.06
2023-04-19T13:51:49.054Z,99479.84
2023-04-19T13:54:52.936Z,99480.84
2023-04-19T13:57:55.854Z,99483.81
2023-04-19T14:00:59.115Z,99482.06
2023-04-19T14:04:03.470Z,99478.00
2023-04-19T14:07:07.437Z,99482.66
2023-04-19T14:10:11.134Z,99474.03
2023-04-19T14:13:14.074Z,99479.53
2023-04-19T14:16:17.342Z,99475.41
2023-04-19T14:19:20.264Z,99478.81
2023-04-19T14:22:23.471Z,99479.00
2023-04-19T14:25:27.091Z,99474.84
2023-04-19T14:28:30.495Z,99482.66
2023-04-19T14:31:34.560Z,99478.13
2023-04-19T14:34:37.768Z,99482.19
2023-04-19T14:37:40.778Z,99480.47
2023-04-19T14:40:44.079Z,99480.97
2023-04-19T14:43:47.072Z,99483.63
2023-04-19T14:46:51.062Z,99490.19
2023-04-19T14:49:54.201Z,99485.69
2023-04-19T14:52:57.503Z,99488.78
2023-04-19T14:56:03.917Z,99490.56
2023-04-19T14:59:08.239Z,99492.13
2023-04-19T15:02:13.430Z,99493.19
2023-04-19T15:05:16.916Z,99505.25
2023-04-19T15:08:30.184Z,99503.53
2023-04-19T15:11:35.606Z,99502.25
2023-04-19T15:14:39.123Z,99505.44
2023-04-19T15:17:43.281Z,99509.38
2023-04-19T15:20:46.327Z,99516.38
2023-04-19T15:23:49.665Z,99516.84
2023-04-19T15:26:52.695Z,99517.81
2023-04-19T15:29:55.928Z,99518.09
2023-04-19T15:32:58.909Z,99513.69
2023-04-19T15:36:02.534Z,99520.28
2023-04-19T15:39:05.464Z,99521.53
2023-04-19T15:42:08.689Z,99531.16
2023-04-19T15:45:11.860Z,99528.25
2023-04-19T15:48:16.639Z,99533.12
2023-04-19T15:51:19.587Z,99526.47
2023-04-19T15:54:24.114Z,99539.78
2023-04-19T15:57:27.138Z,99536.41
2023-04-19T16:00:30.519Z,99543.31
2023-04-19T16:03:34.123Z,99542.13
2023-04-19T16:06:37.540Z,99537.56
2023-04-19T16:09:40.769Z,99534.13
2023-04-19T16:12:44.403Z,99532.75
2023-04-19T16:15:47.836Z,99535.09
2023-04-19T16:18:51.150Z,99544.44
2023-04-19T16:21:54.473Z,99544.50
2023-04-19T16:24:57.344Z,99541.81
2023-04-19T16:28:00.944Z,99547.59
2023-04-19T16:31:04.917Z,99544.13
2023-04-19T16:34:08.113Z,99548.41
2023-04-19T16:37:11.695Z,99546.84
2023-04-19T16:40:15.604Z,99549.94
2023-04-19T16:43:20.929Z,99542.63
2023-04-19T16:46:24.716Z,99547.72
2023-04-19T16:49:28.227Z,99545.72
2023-04-19T16:52:32.563Z,99542.63
2023-04-19T16:55:36.831Z,99564.44
2023-04-19T16:58:40.809Z,99559.37
2023-04-19T17:01:45.368Z,99561.34
2023-04-19T17:04:48.748Z,99556.63
2023-04-19T17:07:52.304Z,99567.72
2023-04-19T17:10:56.260Z,99570.34
2023-04-19T17:13:59.866Z,99560.38
2023-04-19T17:17:03.842Z,99567.88
2023-04-19T17:20:08.048Z,99567.56
2023-04-19T17:23:11.865Z,99577.25
2023-04-19T17:26:16.620Z,99572.97
2023-04-19T17:29:22.304Z,99579.97
2023-04-19T17:32:26.764Z,99583.00
2023-04-19T17:35:31.785Z,99581.44
2023-04-19T17:38:35.067Z,99590.31
2023-04-19T17:41:39.935Z,99591.47
2023-04-19T17:44:44.396Z,99587.06
2023-04-19T17:47:48.765Z,99589.72
2023-04-19T17:50:52.570Z,99594.03
2023-04-19T17:53:57.121Z,99602.53
2023-04-19T17:57:03.023Z,99606.72
2023-04-19T18:00:11.034Z,99613.69
2023-04-19T18:03:15.078Z,99616.34
2023-04-19T18:06:21.256Z,99622.50
2023-04-19T18:09:24.728Z,99624.44
2023-04-19T18:12:28.887Z,99629.38
2023-04-19T18:15:32.495Z,99635.53
2023-04-19T18:18:37.370Z,99634.75
2023-04-19T18:21:41.420Z,99644.41
2023-04-19T18:24:47.612Z,99648.25
2023-04-19T18:27:51.278Z,99654.81
2023-04-19T18:30:56.132Z,99651.16
2023-04-19T18:34:01.890Z,99662.84
2023-04-19T18:37:16.620Z,99660.44
2023-04-19T18:40:20.089Z,99658.44
2023-04-19T18:43:24.889Z,99664.19
2023-04-19T18:46:30.094Z,99671.53
2023-04-19T18:49:34.996Z,99659.81
2023-04-19T18:52:38.952Z,99664.44
2023-04-19T18:55:47.604Z,99672.91
2023-04-19T18:58:52.216Z,99669.38
2023-04-19T19:01:58.649Z,99676.66
2023-04-19T19:05:03.320Z,99673.87
2023-04-19T19:08:08.219Z,99678.09
2023-04-19T19:14:23.388Z,99680.34
2023-04-19T19:17:28.946Z,99686.78
2023-04-19T19:20:33.589Z,99695.63
2023-04-19T19:23:42.141Z,99695.56
2023-04-19T19:26:47.711Z,99692.12
2023-04-19T19:29:52.112Z,99692.34
2023-04-19T19:32:56.666Z,99702.09
2023-04-19T19:36:00.857Z,99694.63
2023-04-19T19:39:04.980Z,99695.28
2023-04-19T19:42:09.970Z,99702.09
2023-04-19T19:45:13.963Z,99696.31
2023-04-19T19:48:17.686Z,99695.16
2023-04-19T19:51:52.274Z,99707.88
2023-04-19T19:54:46.066Z,99714.38
2023-04-19T20:01:02.262Z,99718.50
2023-04-19T20:04:07.421Z,99715.66
2023-04-19T20:10:20.929Z,99708.22
2023-04-19T20:13:37.622Z,99704.09
2023-04-19T20:16:41.915Z,99704.47
2023-04-19T20:19:46.997Z,99706.75
2023-04-19T20:22:51.768Z,99707.84
2023-04-19T20:25:54.682Z,99710.13
2023-04-19T20:29:02.678Z,99712.69
2023-04-19T20:32:11.153Z,99713.06
2023-04-19T20:35:15.529Z,99711.81
2023-04-19T20:38:19.314Z,99717.47
2023-04-19T20:41:24.672Z,99718.22
2023-04-19T20:44:29.702Z,99715.81
2023-04-19T20:47:34.003Z,99718.59
2023-04-19T20:50:38.004Z,99721.13
2023-04-19T20:53:42.047Z,99729.22
2023-04-19T20:56:45.269Z,99725.31
2023-04-19T20:59:49.208Z,99725.31
2023-04-19T21:02:52.233Z,99727.84
2023-04-19T21:05:55.574Z,99732.25
2023-04-19T21:09:00.266Z,99727.09
2023-04-19T21:12:03.746Z,99732.22
2023-04-19T21:15:07.663Z,99735.06
2023-04-19T21:18:11.245Z,99733.78
2023-04-19T21:21:14.101Z,99735.47
2023-04-19T21:24:17.306Z,99740.81
2023-04-19T21:27:20.239Z,99738.56
2023-04-19T21:30:23.899Z,99741.75
2023-04-19T21:33:26.819Z,99741.69
2023-04-19T21:36:30.036Z,99743.88
2023-04-19T21:39:33.184Z,99740.69
2023-04-19T21:42:36.671Z,99744.22
2023-04-19T21:45:39.616Z,99737.09
2023-04-19T21:48:42.958Z,99742.59
2023-04-19T21:51:46.134Z,99738.91
2023-04-19T21:54:49.902Z,99743.88
2023-04-19T21:57:52.914Z,99750.06
2023-04-19T22:00:56.366Z,99748.63
2023-04-19T22:03:59.940Z,99743.16
2023-04-19T22:07:03.223Z,99735.56
2023-04-19T22:10:07.619Z,99737.69
2023-04-19T22:13:10.643Z,99742.00
2023-04-19T22:16:15.124Z,99742.44
2023-04-19T22:19:18.537Z,99745.84
2023-04-19T22:22:21.957Z,99746.41
2023-04-19T22:25:25.187Z,99751.41
2023-04-19T22:28:28.323Z,99757.03
2023-04-19T22:31:31.752Z,99752.59
2023-04-19T22:34:36.672Z,99752.22
2023-04-19T22:37:39.571Z,99760.91
2023-04-19T22:40:43.403Z,99752.41
2023-04-19T22:43:46.476Z,99758.13
2023-04-19T22:46:49.729Z,99750.88
2023-04-19T22:49:53.154Z,99751.59
2023-04-19T22:52:56.527Z,99753.25
2023-04-19T22:55:59.410Z,99755.88
2023-04-19T22:59:02.635Z,99752.56
2023-04-19T23:02:05.851Z,99750.94
2023-04-19T23:05:09.352Z,99756.94
2023-04-19T23:08:13.005Z,99752.22
2023-04-19T23:11:16.407Z,99747.09
2023-04-19T23:14:19.439Z,99739.72
2023-04-19T23:17:23.963Z,99739.00
2023-04-19T23:20:26.849Z,99737.53
2023-04-19T23:23:31.258Z,99735.09
2023-04-19T23:26:34.200Z,99738.84
2023-04-19T23:29:37.463Z,99737.62
2023-04-19T23:32:40.347Z,99746.16
2023-04-19T23:35:43.523Z,99742.66
2023-04-19T23:38:46.271Z,99746.16
2023-04-19T23:41:49.404Z,99748.25
2023-04-19T23:44:55.845Z,99751.91
2023-04-19T23:47:59.177Z,99745.69
2023-04-19T23:51:02.183Z,99745.59
2023-04-19T23:54:05.815Z,99736.59
2023-04-19T23:57:08.675Z,99745.09
